KVCV/VCV METAR and TAF weather

Enter ICAO airport designator
Station Type Date Time Source
KVCV METAR 2024/05/28 22:35 UTC NOAA

KVCV 282235Z AUTO 19010G18KT 150V230 10SM CLR 30/03 A3001 RMK AO2


Station Type Date Time Source
KVCV Decoded METAR 2024/05/28 22:35 UTC NOAA

Victorville, Southern California Logistics Airport, CA, United States (KVCV) 34-35-50N 117-22-58W
May 28, 2024 - 06:35 PM EDT / 2024.05.28 2235 UTC
Wind: from the S (190 degrees) at 12 MPH (10 KT) gusting to 21 MPH (18 KT) (direction variable):0
Visibility: 10 mile(s):0
Sky conditions: clear
Temperature: 86 F (30 C)
Dew Point: 37 F (3 C)
Relative Humidity: 17%
Pressure (altimeter): 30.01 in. Hg (1016 hPa)
ob: KVCV 282235Z AUTO 19010G18KT 150V230 10SM CLR 30/03 A3001 RMK AO2
cycle: 22

Station Type Date Time Source
KVCV TAF UTC NOAA

Error!

Example: see airport list